createdAt,value
2023-01-09T00:01:23.093Z,11.80
2023-01-09T00:03:51.167Z,11.13
2023-01-09T00:06:20.241Z,12.73
2023-01-09T00:08:48.033Z,12.17
2023-01-09T00:11:15.788Z,13.57
2023-01-09T00:13:43.580Z,13.00
2023-01-09T00:16:11.632Z,12.40
2023-01-09T00:18:39.387Z,13.27
2023-01-09T00:21:09.107Z,13.17
2023-01-09T00:23:38.574Z,13.60
2023-01-09T00:26:08.123Z,12.43
2023-01-09T00:28:36.535Z,13.63
2023-01-09T00:31:05.620Z,12.20
2023-01-09T00:33:35.686Z,12.83
2023-01-09T00:36:04.283Z,12.60
2023-01-09T00:38:32.103Z,12.87
2023-01-09T00:41:03.294Z,12.70
2023-01-09T00:43:34.993Z,13.17
2023-01-09T00:46:06.086Z,13.17
2023-01-09T00:48:35.860Z,12.87
2023-01-09T00:51:03.788Z,13.00
2023-01-09T00:53:33.958Z,13.80
2023-01-09T00:56:06.490Z,13.23
2023-01-09T00:58:35.600Z,13.37
2023-01-09T01:01:03.642Z,12.60
2023-01-09T01:03:31.449Z,13.37
2023-01-09T01:06:16.957Z,12.63
2023-01-09T01:08:46.171Z,13.77
2023-01-09T01:11:15.738Z,13.37
2023-01-09T01:13:43.856Z,12.40
2023-01-09T01:16:13.572Z,13.63
2023-01-09T01:18:41.901Z,12.90
2023-01-09T01:21:10.877Z,13.70
2023-01-09T01:23:39.267Z,13.03
2023-01-09T01:26:08.215Z,12.33
2023-01-09T01:28:37.251Z,12.10
2023-01-09T01:31:05.973Z,12.10
2023-01-09T01:33:35.103Z,12.60
2023-01-09T01:36:04.126Z,12.03
2023-01-09T01:38:32.318Z,11.60
2023-01-09T01:41:00.582Z,12.10
2023-01-09T01:43:28.283Z,12.67
2023-01-09T01:45:57.424Z,12.87
2023-01-09T01:48:29.939Z,13.47
2023-01-09T01:51:01.514Z,13.60
2023-01-09T01:53:34.262Z,13.90
2023-01-09T01:56:09.074Z,13.83
2023-01-09T01:58:43.075Z,14.37
2023-01-09T02:01:12.633Z,13.83
2023-01-09T02:03:42.227Z,13.60
2023-01-09T02:06:10.549Z,17.43
2023-01-09T02:08:38.715Z,14.80
2023-01-09T02:11:07.095Z,14.53
2023-01-09T02:13:38.706Z,13.97
2023-01-09T02:16:22.889Z,14.70
2023-01-09T02:18:54.060Z,14.20
2023-01-09T02:21:35.597Z,13.90
2023-01-09T02:24:11.318Z,13.70
2023-01-09T02:27:11.203Z,14.57
2023-01-09T02:30:14.876Z,14.27
2023-01-09T02:32:52.894Z,14.83
2023-01-09T02:35:32.921Z,13.57
2023-01-09T02:38:07.869Z,13.93
2023-01-09T02:40:41.139Z,13.73
2023-01-09T02:43:10.420Z,15.07
2023-01-09T02:45:38.165Z,13.77
2023-01-09T02:48:09.121Z,13.90
2023-01-09T02:50:42.458Z,14.83
2023-01-09T02:53:47.011Z,13.50
2023-01-09T02:56:29.627Z,14.40
2023-01-09T02:59:17.468Z,14.37
2023-01-09T03:01:55.860Z,14.17
2023-01-09T03:04:36.594Z,13.63
2023-01-09T03:07:11.308Z,13.93
2023-01-09T03:09:43.757Z,14.20
2023-01-09T03:12:18.248Z,14.67
2023-01-09T03:14:49.760Z,14.70
2023-01-09T03:17:23.606Z,13.90
2023-01-09T03:19:54.040Z,13.80
2023-01-09T03:22:21.838Z,13.73
2023-01-09T03:24:49.564Z,14.17
2023-01-09T03:27:17.415Z,14.23
2023-01-09T03:29:45.180Z,14.70
2023-01-09T03:32:13.962Z,13.00
2023-01-09T03:34:41.701Z,14.27
2023-01-09T03:37:10.763Z,13.27
2023-01-09T03:39:38.484Z,13.77
2023-01-09T03:42:06.500Z,14.10
2023-01-09T03:44:34.259Z,13.10
2023-01-09T03:47:02.041Z,12.83
2023-01-09T03:49:29.742Z,14.37
2023-01-09T03:51:57.464Z,13.57
2023-01-09T03:54:26.774Z,13.37
2023-01-09T03:56:54.631Z,13.27
2023-01-09T03:59:22.333Z,14.00
2023-01-09T04:01:50.224Z,13.90
2023-01-09T04:04:18.157Z,13.00
2023-01-09T04:06:45.890Z,12.77
2023-01-09T04:09:13.619Z,13.03
2023-01-09T04:11:42.669Z,11.90
2023-01-09T04:14:10.383Z,13.00
2023-01-09T04:16:38.162Z,12.60
2023-01-09T04:19:05.925Z,12.00
2023-01-09T04:21:33.648Z,12.27
2023-01-09T04:24:02.921Z,11.80
2023-01-09T04:26:30.668Z,12.97
2023-01-09T04:29:00.494Z,12.67
2023-01-09T04:31:28.361Z,11.83
2023-01-09T04:33:56.384Z,12.23
2023-01-09T04:36:24.128Z,12.00
2023-01-09T04:38:51.847Z,12.07
2023-01-09T04:41:33.601Z,12.37
2023-01-09T04:44:02.649Z,12.23
2023-01-09T04:46:30.390Z,12.33
2023-01-09T04:48:58.095Z,12.83
2023-01-09T04:51:25.876Z,12.23
2023-01-09T04:53:53.600Z,13.90
2023-01-09T04:56:21.339Z,13.23
2023-01-09T04:58:49.091Z,13.20
2023-01-09T05:01:18.274Z,13.20
2023-01-09T05:03:46.058Z,13.60
2023-01-09T05:06:13.841Z,13.50
2023-01-09T05:08:41.558Z,14.63
2023-01-09T05:11:09.296Z,14.50
2023-01-09T05:13:37.043Z,15.03
2023-01-09T05:16:04.823Z,14.73
2023-01-09T05:18:33.895Z,15.50
2023-01-09T05:21:01.673Z,15.37
2023-01-09T05:23:29.409Z,16.20
2023-01-09T05:25:57.170Z,16.07
2023-01-09T05:28:24.899Z,14.80
2023-01-09T05:30:52.631Z,16.50
2023-01-09T05:33:20.362Z,15.60
2023-01-09T05:35:49.516Z,15.30
2023-01-09T05:38:17.340Z,15.37
2023-01-09T05:40:45.081Z,15.87
2023-01-09T05:43:12.834Z,14.57
2023-01-09T05:45:40.661Z,17.60
2023-01-09T05:48:08.485Z,16.50
2023-01-09T05:50:36.304Z,16.27
2023-01-09T05:53:06.647Z,15.40
2023-01-09T05:55:34.434Z,16.17
2023-01-09T05:58:02.540Z,15.87
2023-01-09T06:00:30.570Z,16.13
2023-01-09T06:02:58.458Z,17.17
2023-01-09T06:05:26.403Z,16.33
2023-01-09T06:07:54.229Z,17.00
2023-01-09T06:10:23.379Z,15.40
2023-01-09T06:12:53.135Z,15.67
2023-01-09T06:15:21.456Z,16.37
2023-01-09T06:17:49.189Z,16.70
2023-01-09T06:20:17.090Z,15.70
2023-01-09T06:22:45.314Z,16.13
2023-01-09T06:25:13.388Z,16.67
2023-01-09T06:27:42.423Z,16.53
2023-01-09T06:30:11.388Z,16.47
2023-01-09T06:32:39.214Z,16.33
2023-01-09T06:35:07.285Z,16.00
2023-01-09T06:37:35.012Z,16.13
2023-01-09T06:40:02.750Z,16.10
2023-01-09T06:42:30.455Z,16.87
2023-01-09T06:44:59.534Z,16.43
2023-01-09T06:47:27.277Z,15.07
2023-01-09T06:49:54.990Z,15.97
2023-01-09T06:52:22.703Z,15.37
2023-01-09T06:54:50.494Z,15.53
2023-01-09T06:57:18.385Z,15.93
2023-01-09T06:59:46.136Z,17.23
2023-01-09T07:02:20.308Z,15.87
2023-01-09T07:04:48.058Z,16.53
2023-01-09T07:07:16.354Z,15.37
2023-01-09T07:09:44.123Z,14.93
2023-01-09T07:12:12.792Z,15.70
2023-01-09T07:14:40.560Z,15.93
2023-01-09T07:17:08.322Z,15.03
2023-01-09T07:19:37.387Z,14.53
2023-01-09T07:22:05.107Z,15.07
2023-01-09T07:24:32.859Z,14.73
2023-01-09T07:27:00.610Z,14.83
2023-01-09T07:29:28.370Z,13.73
2023-01-09T07:31:56.103Z,14.43
2023-01-09T07:34:23.872Z,14.33
2023-01-09T07:36:52.946Z,14.87
2023-01-09T07:39:20.732Z,13.47
2023-01-09T07:41:48.687Z,14.93
2023-01-09T07:44:16.831Z,14.73
2023-01-09T07:46:44.587Z,15.47
2023-01-09T07:49:12.313Z,15.03
2023-01-09T07:51:43.129Z,15.60
2023-01-09T07:54:13.525Z,15.93
2023-01-09T07:56:41.755Z,16.13
2023-01-09T07:59:09.888Z,15.33
2023-01-09T08:01:37.787Z,14.20
2023-01-09T08:04:05.662Z,15.93
2023-01-09T08:06:33.425Z,15.47
2023-01-09T08:09:01.204Z,15.00
2023-01-09T08:11:30.304Z,14.87
2023-01-09T08:13:58.059Z,13.93
2023-01-09T08:16:25.829Z,13.90
2023-01-09T08:18:53.599Z,14.83
2023-01-09T08:21:21.350Z,15.07
2023-01-09T08:23:49.078Z,14.67
2023-01-09T08:26:16.824Z,15.23
2023-01-09T08:28:45.902Z,14.57
2023-01-09T08:31:13.789Z,15.23
2023-01-09T08:33:41.584Z,15.30
2023-01-09T08:36:10.157Z,15.60
2023-01-09T08:38:37.954Z,14.67
2023-01-09T08:41:25.827Z,15.67
2023-01-09T08:44:12.542Z,14.87
2023-01-09T08:46:57.948Z,15.47
2023-01-09T08:49:25.731Z,16.33
2023-01-09T08:51:53.464Z,16.67
2023-01-09T08:54:21.212Z,16.30
2023-01-09T08:56:48.958Z,16.03
2023-01-09T08:59:18.045Z,17.90
2023-01-09T09:01:45.821Z,17.80
2023-01-09T09:04:13.576Z,16.73
2023-01-09T09:06:41.740Z,16.70
2023-01-09T09:09:09.561Z,16.73
2023-01-09T09:11:37.445Z,15.67
2023-01-09T09:14:25.711Z,15.43
2023-01-09T09:16:55.113Z,15.50
2023-01-09T09:19:23.222Z,15.37
2023-01-09T09:21:50.931Z,15.10
2023-01-09T09:24:18.959Z,15.33
2023-01-09T09:26:46.695Z,14.13
2023-01-09T09:29:14.607Z,14.40
2023-01-09T09:31:42.374Z,14.00
2023-01-09T09:34:12.934Z,13.83
2023-01-09T09:36:40.701Z,13.80
2023-01-09T09:39:09.287Z,13.07
2023-01-09T09:42:26.580Z,13.83
2023-01-09T09:45:07.090Z,12.37
2023-01-09T09:47:45.762Z,12.27
2023-01-09T09:50:29.742Z,11.57
2023-01-09T09:53:04.455Z,12.27
2023-01-09T09:55:34.848Z,11.53
2023-01-09T09:58:07.508Z,11.83
2023-01-09T10:00:35.568Z,12.07
2023-01-09T10:03:06.472Z,11.77
2023-01-09T10:05:38.190Z,12.10
2023-01-09T10:08:15.848Z,11.97
2023-01-09T10:10:51.420Z,12.53
2023-01-09T10:13:38.698Z,12.83
2023-01-09T10:16:17.281Z,10.97
2023-01-09T10:18:57.983Z,11.33
2023-01-09T10:21:32.042Z,11.07
2023-01-09T10:24:14.123Z,10.23
2023-01-09T10:26:47.660Z,10.07
2023-01-09T10:29:39.019Z,8.80
2023-01-09T10:32:21.506Z,8.90
2023-01-09T10:35:00.238Z,9.03
2023-01-09T10:37:31.701Z,8.03
2023-01-09T10:40:05.167Z,8.73
2023-01-09T10:42:38.495Z,7.67
2023-01-09T10:45:17.811Z,6.87
2023-01-09T10:47:47.108Z,7.30
2023-01-09T10:50:25.495Z,7.00
2023-01-09T10:52:56.913Z,6.93
2023-01-09T10:55:33.849Z,7.03
2023-01-09T10:58:03.937Z,7.07
2023-01-09T11:00:31.670Z,6.20
2023-01-09T11:02:59.484Z,6.97
2023-01-09T11:05:32.741Z,6.50
2023-01-09T11:08:07.594Z,6.07
2023-01-09T11:10:48.022Z,5.60
2023-01-09T11:13:19.759Z,5.90
2023-01-09T11:15:59.475Z,6.00
2023-01-09T11:18:28.153Z,5.60
2023-01-09T11:20:56.023Z,5.10
2023-01-09T11:23:31.193Z,4.93
2023-01-09T11:26:00.684Z,5.37
2023-01-09T11:28:29.128Z,4.93
2023-01-09T11:31:00.648Z,4.87
2023-01-09T11:33:30.721Z,4.60
2023-01-09T11:36:01.922Z,4.73
2023-01-09T11:38:32.565Z,4.47
2023-01-09T11:41:04.859Z,4.73
2023-01-09T11:43:37.604Z,4.33
2023-01-09T11:46:07.373Z,4.07
2023-01-09T11:48:41.073Z,4.33
2023-01-09T11:51:19.940Z,3.80
2023-01-09T11:54:18.802Z,3.80
2023-01-09T11:56:47.948Z,3.57
2023-01-09T11:59:19.185Z,3.73
2023-01-09T12:02:26.160Z,3.47
2023-01-09T12:04:57.154Z,3.37
2023-01-09T12:07:44.153Z,3.27
2023-01-09T12:10:31.277Z,3.10
2023-01-09T12:13:07.973Z,2.87
2023-01-09T12:15:46.360Z,2.50
2023-01-09T12:18:26.411Z,2.63
2023-01-09T12:21:25.444Z,2.63
2023-01-09T12:24:13.360Z,2.70
2023-01-09T12:26:50.368Z,2.10
2023-01-09T12:29:53.845Z,2.20
2023-01-09T12:32:36.777Z,2.00
2023-01-09T12:35:13.413Z,2.00
2023-01-09T12:38:05.377Z,2.00
2023-01-09T12:40:51.732Z,2.00
2023-01-09T12:43:28.798Z,1.70
2023-01-09T12:46:06.385Z,1.90
2023-01-09T12:48:52.336Z,1.70
2023-01-09T12:51:28.703Z,1.50
2023-01-09T12:54:02.241Z,1.73
2023-01-09T12:56:34.640Z,1.67
2023-01-09T12:59:18.757Z,1.77
2023-01-09T13:01:49.492Z,1.57
2023-01-09T13:04:24.328Z,1.90
2023-01-09T13:06:57.321Z,1.70
2023-01-09T13:09:28.445Z,1.47
2023-01-09T13:12:04.051Z,2.00
2023-01-09T13:14:48.281Z,1.40
2023-01-09T13:17:20.867Z,1.30
2023-01-09T13:19:48.943Z,1.93
2023-01-09T13:22:18.118Z,1.53
2023-01-09T13:25:08.775Z,1.60
2023-01-09T13:27:40.863Z,1.60
2023-01-09T13:30:25.561Z,1.77
2023-01-09T13:33:04.153Z,1.53
2023-01-09T13:35:31.960Z,1.60
2023-01-09T13:37:59.817Z,1.50
2023-01-09T13:40:30.348Z,2.20
2023-01-09T13:42:59.835Z,1.30
2023-01-09T13:45:31.191Z,1.50
2023-01-09T13:48:29.387Z,1.47
2023-01-09T13:51:37.318Z,1.60
2023-01-09T13:54:05.263Z,1.60
2023-01-09T13:56:33.015Z,1.50
2023-01-09T13:59:03.800Z,1.30
2023-01-09T14:01:47.546Z,1.57
2023-01-09T14:04:43.314Z,1.50
2023-01-09T14:07:22.259Z,1.83
2023-01-09T14:09:53.480Z,1.83
2023-01-09T14:12:22.736Z,1.40
2023-01-09T14:14:52.249Z,1.50
2023-01-09T14:17:27.469Z,1.80
2023-01-09T14:19:57.895Z,1.60
2023-01-09T14:22:27.779Z,2.20
2023-01-09T14:24:56.700Z,1.50
2023-01-09T14:28:03.046Z,1.80
2023-01-09T14:30:36.649Z,1.93
2023-01-09T14:33:25.719Z,2.70
2023-01-09T14:35:59.396Z,2.80
2023-01-09T14:38:31.759Z,2.20
2023-01-09T14:41:08.871Z,2.03
2023-01-09T14:43:47.478Z,2.20
2023-01-09T14:46:18.700Z,1.83
2023-01-09T14:49:04.855Z,1.63
2023-01-09T14:51:36.480Z,1.70
2023-01-09T14:54:15.541Z,2.03
2023-01-09T14:56:47.881Z,2.10
2023-01-09T14:59:16.342Z,2.60
2023-01-09T15:01:46.775Z,2.10
2023-01-09T15:04:34.932Z,2.40
2023-01-09T15:07:04.971Z,1.70
2023-01-09T15:09:39.191Z,2.03
2023-01-09T15:12:10.538Z,2.20
2023-01-09T15:14:40.502Z,2.00
2023-01-09T15:17:17.712Z,2.10
2023-01-09T15:19:47.279Z,2.37
2023-01-09T15:22:24.085Z,2.07
2023-01-09T15:24:51.831Z,2.10
2023-01-09T15:27:21.999Z,2.10
2023-01-09T15:29:49.767Z,2.17
2023-01-09T15:32:21.979Z,1.83
2023-01-09T15:34:51.176Z,2.10
2023-01-09T15:37:27.428Z,1.80
2023-01-09T15:39:55.727Z,1.80
2023-01-09T15:42:44.028Z,1.73
2023-01-09T15:45:22.961Z,2.17
2023-01-09T15:47:50.695Z,1.53
2023-01-09T15:50:25.132Z,1.57
2023-01-09T15:52:53.821Z,1.70
2023-01-09T15:55:28.484Z,1.63
2023-01-09T15:57:57.133Z,1.50
2023-01-09T16:00:39.431Z,1.40
2023-01-09T16:03:22.575Z,1.37
2023-01-09T16:06:02.569Z,1.20
2023-01-09T16:08:33.789Z,1.23
2023-01-09T16:11:05.029Z,1.50
2023-01-09T16:13:35.949Z,1.40
2023-01-09T16:16:04.266Z,1.40
2023-01-09T16:18:34.583Z,1.43
2023-01-09T16:21:06.119Z,1.60
2023-01-09T16:23:35.848Z,1.93
2023-01-09T16:26:07.960Z,2.53
2023-01-09T16:28:35.887Z,1.33
2023-01-09T16:31:08.131Z,1.33
2023-01-09T16:33:36.308Z,1.30
2023-01-09T16:36:06.283Z,1.27
2023-01-09T16:38:34.573Z,1.40
2023-01-09T16:41:18.245Z,1.20
2023-01-09T16:43:46.280Z,1.30
2023-01-09T16:46:15.439Z,1.10
2023-01-09T16:48:43.660Z,2.30
2023-01-09T16:51:17.301Z,2.70
2023-01-09T16:53:45.854Z,2.30
2023-01-09T16:56:17.725Z,1.77
2023-01-09T16:58:46.326Z,2.30
2023-01-09T17:01:15.052Z,1.80
2023-01-09T17:03:44.201Z,1.87
2023-01-09T17:06:19.019Z,2.03
2023-01-09T17:08:46.968Z,1.50
2023-01-09T17:11:21.109Z,4.00
2023-01-09T17:13:49.100Z,3.60
2023-01-09T17:16:19.512Z,2.20
2023-01-09T17:18:47.383Z,3.90
2023-01-09T17:21:21.470Z,3.23
2023-01-09T17:24:09.737Z,2.13
2023-01-09T17:26:56.549Z,1.97
2023-01-09T17:29:24.518Z,1.80
2023-01-09T17:31:52.357Z,1.70
2023-01-09T17:34:20.177Z,1.80
2023-01-09T17:36:49.302Z,2.03
2023-01-09T17:39:18.330Z,2.03
2023-01-09T17:41:46.081Z,1.80
2023-01-09T17:44:13.884Z,2.10
2023-01-09T17:46:44.152Z,1.53
2023-01-09T17:49:17.006Z,1.70
2023-01-09T17:51:44.813Z,1.60
2023-01-09T17:54:14.384Z,1.50
2023-01-09T17:56:45.838Z,1.50
2023-01-09T17:59:14.372Z,1.57
2023-01-09T18:01:43.085Z,1.43
2023-01-09T18:04:11.180Z,1.80
2023-01-09T18:06:39.047Z,1.40
2023-01-09T18:09:07.863Z,2.20
2023-01-09T18:11:36.905Z,2.33
2023-01-09T18:14:04.680Z,2.33
2023-01-09T18:16:32.501Z,2.50
2023-01-09T18:19:01.794Z,2.10
2023-01-09T18:21:30.783Z,1.60
2023-01-09T18:24:00.580Z,1.60
2023-01-09T18:26:28.549Z,1.87
2023-01-09T18:28:59.466Z,2.07
2023-01-09T18:31:28.578Z,2.30
2023-01-09T18:33:58.240Z,1.70
2023-01-09T18:36:29.804Z,1.63
2023-01-09T18:38:59.005Z,1.97
2023-01-09T18:41:27.603Z,1.70
2023-01-09T18:43:58.857Z,1.40
2023-01-09T18:46:32.052Z,1.43
2023-01-09T18:49:01.529Z,1.23
2023-01-09T18:51:30.160Z,1.30
2023-01-09T18:53:58.692Z,1.23
2023-01-09T18:56:27.138Z,1.50
2023-01-09T18:58:57.748Z,1.30
2023-01-09T19:01:26.610Z,1.23
2023-01-09T19:03:54.762Z,1.20
2023-01-09T19:06:22.797Z,1.33
2023-01-09T19:08:50.718Z,1.60
2023-01-09T19:11:19.181Z,1.53
2023-01-09T19:13:47.011Z,1.27
2023-01-09T19:16:16.209Z,1.40
2023-01-09T19:18:44.634Z,1.60
2023-01-09T19:21:14.993Z,1.47
2023-01-09T19:23:44.305Z,1.60
2023-01-09T19:26:18.039Z,1.40
2023-01-09T19:28:46.707Z,1.60
2023-01-09T19:31:16.061Z,1.70
2023-01-09T19:33:43.968Z,2.40
2023-01-09T19:36:12.592Z,2.13
2023-01-09T19:38:41.033Z,1.50
2023-01-09T19:41:13.104Z,1.50
2023-01-09T19:43:41.030Z,1.60
2023-01-09T19:46:10.483Z,1.70
2023-01-09T19:48:39.758Z,1.40
2023-01-09T19:51:08.922Z,1.40
2023-01-09T19:53:37.034Z,1.43
2023-01-09T19:56:12.924Z,1.50
2023-01-09T19:58:41.358Z,1.30
2023-01-09T20:01:11.916Z,1.70
2023-01-09T20:03:42.689Z,1.47
2023-01-09T20:06:14.373Z,1.40
2023-01-09T20:08:42.848Z,1.57
2023-01-09T20:11:10.879Z,1.20
2023-01-09T20:13:40.101Z,1.50
2023-01-09T20:16:09.544Z,1.47
2023-01-09T20:18:37.374Z,1.60
2023-01-09T20:21:06.894Z,1.70
2023-01-09T20:23:36.055Z,4.37
2023-01-09T20:26:03.954Z,1.90
2023-01-09T20:28:31.939Z,1.83
2023-01-09T20:30:59.750Z,1.87
2023-01-09T20:33:27.731Z,1.73
2023-01-09T20:35:55.494Z,1.47
2023-01-09T20:38:25.430Z,1.40
2023-01-09T20:40:53.302Z,1.53
2023-01-09T20:43:21.172Z,1.60
2023-01-09T20:45:49.049Z,1.70
2023-01-09T20:48:17.096Z,1.87
2023-01-09T20:50:44.873Z,2.20
2023-01-09T20:53:12.717Z,1.90
2023-01-09T20:55:41.825Z,1.57
2023-01-09T20:58:09.714Z,2.77
2023-01-09T21:00:37.554Z,1.83
2023-01-09T21:03:05.871Z,2.40
2023-01-09T21:05:33.940Z,1.90
2023-01-09T21:08:03.348Z,1.70
2023-01-09T21:10:31.162Z,2.77
2023-01-09T21:13:00.268Z,1.90
2023-01-09T21:15:28.222Z,1.80
2023-01-09T21:17:56.197Z,4.87
2023-01-09T21:20:24.110Z,2.00
2023-01-09T21:22:52.262Z,2.93
2023-01-09T21:25:20.135Z,3.90
2023-01-09T21:27:49.801Z,3.37
2023-01-09T21:30:19.000Z,2.93
2023-01-09T21:32:46.966Z,2.30
2023-01-09T21:35:14.830Z,2.50
2023-01-09T21:37:42.820Z,2.17
2023-01-09T21:40:14.596Z,2.07
2023-01-09T21:43:00.164Z,2.47
2023-01-09T21:45:47.007Z,2.20
2023-01-09T21:48:15.033Z,2.07
2023-01-09T21:50:42.872Z,2.30
2023-01-09T21:53:10.791Z,2.00
2023-01-09T21:55:38.557Z,2.10
2023-01-09T21:58:06.509Z,2.10
2023-01-09T22:00:35.840Z,1.93
2023-01-09T22:03:05.851Z,2.30
2023-01-09T22:05:36.640Z,1.97
2023-01-09T22:08:04.475Z,2.03
2023-01-09T22:10:32.298Z,2.00
2023-01-09T22:13:17.138Z,2.00
2023-01-09T22:15:47.491Z,5.47
2023-01-09T22:18:15.297Z,2.80
2023-01-09T22:20:43.003Z,2.10
2023-01-09T22:23:10.806Z,2.10
2023-01-09T22:25:38.835Z,2.30
2023-01-09T22:28:10.005Z,2.10
2023-01-09T22:30:40.239Z,2.30
2023-01-09T22:33:11.146Z,2.20
2023-01-09T22:35:39.533Z,2.23
2023-01-09T22:38:07.284Z,2.07
2023-01-09T22:40:35.262Z,2.53
2023-01-09T22:43:02.982Z,2.43
2023-01-09T22:45:31.058Z,2.33
2023-01-09T22:47:58.914Z,2.73
2023-01-09T22:50:28.022Z,3.97
2023-01-09T22:52:55.745Z,2.73
2023-01-09T22:55:23.458Z,2.30
2023-01-09T22:57:51.375Z,2.20
2023-01-09T23:00:19.759Z,2.10
2023-01-09T23:02:48.458Z,2.40
2023-01-09T23:05:16.433Z,2.40
2023-01-09T23:07:45.475Z,2.77
2023-01-09T23:10:13.409Z,2.50
2023-01-09T23:12:46.635Z,2.33
2023-01-09T23:15:14.487Z,2.27
2023-01-09T23:17:42.249Z,3.70
2023-01-09T23:20:11.447Z,3.20
2023-01-09T23:22:39.247Z,2.40
2023-01-09T23:25:09.424Z,2.30
2023-01-09T23:27:37.153Z,2.50
2023-01-09T23:30:05.570Z,2.50
2023-01-09T23:32:33.324Z,2.60
2023-01-09T23:35:01.046Z,3.10
2023-01-09T23:37:28.747Z,2.23
2023-01-09T23:39:56.457Z,2.67
2023-01-09T23:42:45.348Z,2.60
2023-01-09T23:45:13.178Z,3.07
2023-01-09T23:47:40.982Z,3.10
2023-01-09T23:50:10.030Z,2.53
2023-01-09T23:52:37.740Z,2.70
2023-01-09T23:55:06.280Z,2.40
2023-01-09T23:57:35.324Z,2.47
